createdAt,value
2023-03-12T00:00:52.141Z,79.333984375
2023-03-12T00:01:52.181Z,79.3671875
2023-03-12T00:02:52.229Z,79.525390625
2023-03-12T00:03:54.691Z,79.6240234375
2023-03-12T00:04:52.152Z,79.9111328125
2023-03-12T00:05:52.219Z,79.931640625
2023-03-12T00:06:52.141Z,79.826171875
2023-03-12T00:07:52.590Z,79.6572265625
2023-03-12T00:08:53.553Z,79.3916015625
2023-03-12T00:09:52.149Z,79.4501953125
2023-03-12T00:10:52.168Z,79.455078125
2023-03-12T00:11:52.150Z,79.287109375
2023-03-12T00:12:52.223Z,79.1875
2023-03-12T00:13:52.143Z,79.2958984375
2023-03-12T00:14:54.515Z,79.259765625
2023-03-12T00:15:52.183Z,79.2294921875
2023-03-12T00:16:52.556Z,79.1533203125
2023-03-12T00:17:52.343Z,78.90625
2023-03-12T00:18:52.200Z,78.8408203125
2023-03-12T00:19:52.233Z,78.9111328125
2023-03-12T00:20:52.110Z,78.814453125
2023-03-12T00:21:52.540Z,78.8115234375
2023-03-12T00:22:52.819Z,78.7080078125
2023-03-12T00:23:52.263Z,78.2685546875
2023-03-12T00:24:52.145Z,77.8115234375
2023-03-12T00:25:54.523Z,77.5888671875
2023-03-12T00:26:52.531Z,77.380859375
2023-03-12T00:27:52.184Z,77.2822265625
2023-03-12T00:28:52.112Z,76.876953125
2023-03-12T00:29:52.265Z,76.447265625
2023-03-12T00:30:52.115Z,76.4443359375
2023-03-12T00:31:52.356Z,76.2158203125
2023-03-12T00:32:52.279Z,75.9833984375
2023-03-12T00:33:52.157Z,75.6591796875
2023-03-12T00:34:52.154Z,75.3955078125
2023-03-12T00:35:52.247Z,75.4521484375
2023-03-12T00:36:54.454Z,75.5673828125
2023-03-12T00:37:52.542Z,75.6240234375
2023-03-12T00:38:52.123Z,75.814453125
2023-03-12T00:39:52.255Z,75.9306640625
2023-03-12T00:40:52.121Z,75.896484375
2023-03-12T00:41:52.129Z,75.884765625
2023-03-12T00:42:52.521Z,75.736328125
2023-03-12T00:43:52.140Z,75.904296875
2023-03-12T00:44:52.119Z,75.953125
2023-03-12T00:45:52.124Z,75.9453125
2023-03-12T00:46:52.208Z,75.8525390625
2023-03-12T00:47:54.575Z,75.630859375
2023-03-12T00:48:52.550Z,75.43359375
2023-03-12T00:49:52.109Z,75.4443359375
2023-03-12T00:50:52.113Z,75.7685546875
2023-03-12T00:51:52.144Z,76.037109375
2023-03-12T00:52:52.118Z,75.876953125
2023-03-12T00:53:52.537Z,75.5576171875
2023-03-12T00:54:52.200Z,75.44921875
2023-03-12T00:55:52.074Z,75.5322265625
2023-03-12T00:56:52.125Z,75.251953125
2023-03-12T00:57:52.122Z,75.033203125
2023-03-12T00:58:54.517Z,75.08984375
2023-03-12T00:59:52.540Z,75.0380859375
2023-03-12T01:00:52.308Z,75.0771484375
2023-03-12T01:01:52.141Z,75.1259765625
2023-03-12T01:02:52.104Z,75.1943359375
2023-03-12T01:03:52.296Z,75.0087890625
2023-03-12T01:04:52.524Z,74.798828125
2023-03-12T01:05:52.112Z,74.7548828125
2023-03-12T01:06:52.121Z,74.845703125
2023-03-12T01:07:52.525Z,75.0927734375
2023-03-12T01:08:52.131Z,75.2509765625
2023-03-12T01:09:56.970Z,75.18359375
2023-03-12T01:10:52.224Z,75.15234375
2023-03-12T01:11:52.122Z,74.93359375
2023-03-12T01:12:52.107Z,74.923828125
2023-03-12T01:13:52.102Z,74.955078125
2023-03-12T01:14:52.522Z,75.8291015625
2023-03-12T01:15:52.126Z,76.6298828125
2023-03-12T01:16:52.727Z,77.1279296875
2023-03-12T01:17:52.110Z,77.681640625
2023-03-12T01:18:52.115Z,78.23828125
2023-03-12T01:19:52.537Z,78.2578125
2023-03-12T01:20:54.457Z,78.5654296875
2023-03-12T01:21:52.119Z,78.8564453125
2023-03-12T01:22:52.526Z,79.0009765625
2023-03-12T01:23:52.137Z,78.763671875
2023-03-12T01:24:52.518Z,78.5771484375
2023-03-12T01:25:52.135Z,78.4609375
2023-03-12T01:26:52.087Z,78.4130859375
2023-03-12T01:27:52.108Z,78.62890625
2023-03-12T01:28:52.121Z,78.4970703125
2023-03-12T01:29:52.534Z,78.5
2023-03-12T01:30:52.124Z,78.4677734375
2023-03-12T01:31:54.500Z,78.4814453125
2023-03-12T01:32:52.293Z,78.48828125
2023-03-12T01:33:52.138Z,78.3095703125
2023-03-12T01:34:52.527Z,77.951171875
2023-03-12T01:35:52.229Z,77.5888671875
2023-03-12T01:36:52.123Z,77.330078125
2023-03-12T01:37:52.545Z,77.244140625
2023-03-12T01:38:52.128Z,77.6142578125
2023-03-12T01:39:52.516Z,77.697265625
2023-03-12T01:40:52.129Z,77.6865234375
2023-03-12T01:41:52.089Z,77.8173828125
2023-03-12T01:42:54.420Z,78.0009765625
2023-03-12T01:43:52.125Z,78.0732421875
2023-03-12T01:44:52.528Z,78.05078125
2023-03-12T01:45:52.174Z,77.955078125
2023-03-12T01:46:52.117Z,77.9765625
2023-03-12T01:47:52.220Z,77.9287109375
2023-03-12T01:48:52.119Z,77.7578125
2023-03-12T01:49:52.506Z,77.6708984375
2023-03-12T01:50:52.135Z,77.9287109375
2023-03-12T01:51:52.137Z,77.7099609375
2023-03-12T01:52:52.543Z,77.9169921875
2023-03-12T01:53:54.490Z,78.033203125
2023-03-12T01:54:52.525Z,77.974609375
2023-03-12T01:55:52.116Z,78.197265625
2023-03-12T01:56:52.141Z,78.4267578125
2023-03-12T01:57:52.131Z,78.42578125
2023-03-12T01:58:52.118Z,78.5888671875
2023-03-12T01:59:52.523Z,78.2294921875
2023-03-12T02:00:52.134Z,78.2216796875
2023-03-12T02:01:52.093Z,78.361328125
2023-03-12T02:02:52.112Z,78.212890625
2023-03-12T02:03:52.187Z,78.1416015625
2023-03-12T02:04:56.961Z,78.09765625
2023-03-12T02:05:52.115Z,77.9189453125
2023-03-12T02:06:52.224Z,77.982421875
2023-03-12T02:07:52.535Z,78.01953125
2023-03-12T02:08:52.123Z,78.08984375
2023-03-12T02:09:52.518Z,78.353515625
2023-03-12T02:10:52.094Z,78.4462890625
2023-03-12T02:11:52.213Z,78.341796875
2023-03-12T02:12:52.118Z,78.1767578125
2023-03-12T02:13:52.120Z,78.07421875
2023-03-12T02:14:52.522Z,77.9052734375
2023-03-12T02:15:54.545Z,77.8173828125
2023-03-12T02:16:52.196Z,77.556640625
2023-03-12T02:17:52.117Z,77.43359375
2023-03-12T02:18:52.107Z,77.4423828125
2023-03-12T02:19:52.524Z,77.4130859375
2023-03-12T02:20:52.116Z,77.095703125
2023-03-12T02:21:52.090Z,77.1083984375
2023-03-12T02:22:52.529Z,76.98046875
2023-03-12T02:23:52.117Z,76.7294921875
2023-03-12T02:24:52.502Z,76.890625
2023-03-12T02:25:52.108Z,76.9013671875
2023-03-12T02:26:54.585Z,77.0283203125
2023-03-12T02:27:52.120Z,77.046875
2023-03-12T02:28:52.229Z,76.8056640625
2023-03-12T02:29:52.520Z,77.0244140625
2023-03-12T02:30:52.115Z,77.271484375
2023-03-12T02:31:52.209Z,77.32421875
2023-03-12T02:32:52.198Z,77.103515625
2023-03-12T02:33:52.131Z,77.1455078125
2023-03-12T02:34:52.565Z,77.1884765625
2023-03-12T02:35:52.129Z,77.2001953125
2023-03-12T02:36:52.093Z,76.9658203125
2023-03-12T02:37:57.017Z,77.10546875
2023-03-12T02:38:52.114Z,77.220703125
2023-03-12T02:39:52.507Z,77.0859375
2023-03-12T02:40:52.121Z,77.2578125
2023-03-12T02:41:52.093Z,77.4052734375
2023-03-12T02:42:52.104Z,77.353515625
2023-03-12T02:43:52.226Z,77.1416015625
2023-03-12T02:44:52.534Z,77.0732421875
2023-03-12T02:45:52.161Z,77.1640625
2023-03-12T02:46:52.235Z,77.140625
2023-03-12T02:47:52.125Z,77
2023-03-12T02:48:54.488Z,76.9140625
2023-03-12T02:49:52.532Z,76.787109375
2023-03-12T02:50:52.206Z,76.9453125
2023-03-12T02:51:52.180Z,77.0986328125
2023-03-12T02:52:52.549Z,76.912109375
2023-03-12T02:53:52.120Z,76.896484375
2023-03-12T02:54:52.526Z,76.9130859375
2023-03-12T02:55:52.123Z,76.837890625
2023-03-12T02:56:52.273Z,77.1376953125
2023-03-12T02:57:52.124Z,77.267578125
2023-03-12T02:58:52.125Z,77.44921875
2023-03-12T02:59:56.957Z,77.42578125
2023-03-12T03:00:52.178Z,77.5439453125
2023-03-12T03:01:52.126Z,77.61328125
2023-03-12T03:02:52.133Z,77.626953125
2023-03-12T03:03:52.202Z,77.517578125
2023-03-12T03:04:52.592Z,77.6015625
2023-03-12T03:05:52.125Z,77.7802734375
2023-03-12T03:06:52.110Z,78.1240234375
2023-03-12T03:07:52.555Z,78.3115234375
2023-03-12T03:08:52.115Z,79.0947265625
2023-03-12T03:09:52.512Z,79.65234375
2023-03-12T03:10:54.492Z,79.833984375
2023-03-12T03:11:52.127Z,80.0615234375
2023-03-12T03:12:52.120Z,80.3837890625
2023-03-12T03:13:52.190Z,80.9541015625
2023-03-12T03:14:52.527Z,81.0595703125
2023-03-12T03:15:52.233Z,81.0869140625
2023-03-12T03:16:52.121Z,80.9404296875
2023-03-12T03:17:52.121Z,81.1142578125
2023-03-12T03:18:52.273Z,81.3046875
2023-03-12T03:19:52.530Z,81.2626953125
2023-03-12T03:20:52.120Z,81.2548828125
2023-03-12T03:21:54.533Z,81.3115234375
2023-03-12T03:22:52.531Z,81.4169921875
2023-03-12T03:23:52.352Z,81.27734375
2023-03-12T03:24:52.552Z,81.326171875
2023-03-12T03:25:52.109Z,81.1689453125
2023-03-12T03:26:52.127Z,81.115234375
2023-03-12T03:27:52.131Z,81.240234375
2023-03-12T03:28:52.238Z,81.2109375
2023-03-12T03:29:52.534Z,81.42578125
2023-03-12T03:30:52.143Z,81.568359375
2023-03-12T03:31:52.122Z,81.4453125
2023-03-12T03:32:54.489Z,81.708984375
2023-03-12T03:33:52.116Z,81.8095703125
2023-03-12T03:34:52.521Z,81.9560546875
2023-03-12T03:35:52.126Z,81.8251953125
2023-03-12T03:36:52.116Z,81.59375
2023-03-12T03:37:52.536Z,81.3994140625
2023-03-12T03:38:52.110Z,81.134765625
2023-03-12T03:39:52.542Z,80.8740234375
2023-03-12T03:40:52.117Z,80.90234375
2023-03-12T03:41:52.146Z,80.8486328125
2023-03-12T03:42:52.118Z,80.76953125
2023-03-12T03:43:54.470Z,80.8076171875
2023-03-12T03:44:52.546Z,80.751953125
2023-03-12T03:45:52.122Z,80.77734375
2023-03-12T03:46:52.120Z,80.6337890625
2023-03-12T03:47:52.112Z,80.537109375
2023-03-12T03:48:52.123Z,80.890625
2023-03-12T03:49:52.532Z,80.98046875
2023-03-12T03:50:52.105Z,81.439453125
2023-03-12T03:51:52.104Z,81.654296875
2023-03-12T03:52:52.527Z,81.5380859375
2023-03-12T03:53:52.128Z,81.876953125
2023-03-12T03:54:56.960Z,81.7265625
2023-03-12T03:55:52.120Z,82.09375
2023-03-12T03:56:52.115Z,82.16796875
2023-03-12T03:57:52.122Z,82.0947265625
2023-03-12T03:58:52.122Z,81.6083984375
2023-03-12T03:59:52.542Z,81.5966796875
2023-03-12T04:00:52.120Z,81.59765625
2023-03-12T04:01:52.110Z,81.40625
2023-03-12T04:02:52.145Z,81.5849609375
2023-03-12T04:03:52.106Z,82.173828125
2023-03-12T04:04:52.545Z,82.7568359375
2023-03-12T04:05:54.648Z,82.8095703125
2023-03-12T04:06:52.126Z,82.7763671875
2023-03-12T04:07:52.529Z,82.6357421875
2023-03-12T04:08:52.248Z,82.3896484375
2023-03-12T04:09:52.556Z,82.166015625
2023-03-12T04:10:52.124Z,81.7646484375
2023-03-12T04:11:52.090Z,82.0400390625
2023-03-12T04:12:52.273Z,82.0576171875
2023-03-12T04:13:52.136Z,81.76953125
2023-03-12T04:14:52.523Z,81.623046875
2023-03-12T04:15:52.213Z,81.8544921875
2023-03-12T04:16:54.467Z,82.2919921875
2023-03-12T04:17:52.383Z,82.4111328125
2023-03-12T04:18:52.125Z,82.3408203125
2023-03-12T04:19:52.542Z,82.3544921875
2023-03-12T04:20:52.239Z,82.009765625
2023-03-12T04:21:52.127Z,81.955078125
2023-03-12T04:22:52.522Z,81.978515625
2023-03-12T04:23:52.351Z,82.03515625
2023-03-12T04:24:52.557Z,82.064453125
2023-03-12T04:25:52.123Z,81.8779296875
2023-03-12T04:26:52.106Z,81.326171875
2023-03-12T04:27:54.583Z,81.19140625
2023-03-12T04:28:52.126Z,80.8818359375
2023-03-12T04:29:52.546Z,80.873046875
2023-03-12T04:30:52.164Z,80.623046875
2023-03-12T04:31:52.125Z,80.7509765625
2023-03-12T04:32:52.152Z,80.4814453125
2023-03-12T04:33:52.161Z,80.787109375
2023-03-12T04:34:53.734Z,80.9853515625
2023-03-12T04:35:52.125Z,80.8994140625
2023-03-12T04:36:52.105Z,80.90625
2023-03-12T04:37:52.530Z,80.7021484375
2023-03-12T04:38:56.975Z,80.7255859375
2023-03-12T04:39:52.134Z,80.767578125
2023-03-12T04:40:52.097Z,80.7041015625
2023-03-12T04:41:52.096Z,80.8173828125
2023-03-12T04:42:52.125Z,81
2023-03-12T04:43:52.679Z,80.921875
2023-03-12T04:44:52.108Z,80.720703125
2023-03-12T04:45:52.137Z,80.228515625
2023-03-12T04:46:52.141Z,80.509765625
2023-03-12T04:47:52.091Z,80.890625
2023-03-12T04:48:52.518Z,81.125
2023-03-12T04:49:54.580Z,81.24609375
2023-03-12T04:50:52.135Z,81.185546875
2023-03-12T04:51:52.129Z,80.91796875
2023-03-12T04:52:52.233Z,80.453125
2023-03-12T04:53:52.558Z,80.2822265625
2023-03-12T04:54:52.101Z,80.060546875
2023-03-12T04:55:52.073Z,79.9453125
2023-03-12T04:56:52.234Z,79.6220703125
2023-03-12T04:57:52.124Z,79.6748046875
2023-03-12T04:58:52.532Z,79.6767578125
2023-03-12T04:59:52.124Z,79.4482421875
2023-03-12T05:00:54.481Z,79.55078125
2023-03-12T05:01:52.102Z,79.6640625
2023-03-12T05:02:52.154Z,79.59765625
2023-03-12T05:03:52.581Z,79.6767578125
2023-03-12T05:04:52.126Z,79.65625
2023-03-12T05:05:52.251Z,79.583984375
2023-03-12T05:06:52.134Z,79.7412109375
2023-03-12T05:07:52.521Z,79.8193359375
2023-03-12T05:08:52.553Z,79.8408203125
2023-03-12T05:09:52.114Z,79.9150390625
2023-03-12T05:10:52.105Z,79.732421875
2023-03-12T05:11:54.489Z,79.927734375
2023-03-12T05:12:52.125Z,80.263671875
2023-03-12T05:13:52.511Z,80.5361328125
2023-03-12T05:14:52.120Z,80.669921875
2023-03-12T05:15:52.118Z,80.875
2023-03-12T05:16:52.151Z,81.03125
2023-03-12T05:17:52.126Z,81.14453125
2023-03-12T05:18:52.531Z,80.9462890625
2023-03-12T05:19:52.120Z,81.318359375
2023-03-12T05:20:52.126Z,81.693359375
2023-03-12T05:21:52.136Z,81.7744140625
2023-03-12T05:22:56.948Z,81.595703125
2023-03-12T05:23:52.549Z,81.4775390625
2023-03-12T05:24:52.257Z,80.8857421875
2023-03-12T05:25:52.130Z,81.09765625
2023-03-12T05:26:52.281Z,81.380859375
2023-03-12T05:27:52.106Z,81.314453125
2023-03-12T05:28:52.524Z,81.2431640625
2023-03-12T05:29:52.124Z,81.205078125
2023-03-12T05:30:52.150Z,80.9951171875
2023-03-12T05:31:52.274Z,80.841796875
2023-03-12T05:32:52.152Z,80.8779296875
2023-03-12T05:33:56.923Z,80.9560546875
2023-03-12T05:34:52.150Z,80.8505859375
2023-03-12T05:35:52.148Z,80.6171875
2023-03-12T05:36:52.123Z,80.4853515625
2023-03-12T05:37:52.566Z,80.7060546875
2023-03-12T05:38:52.543Z,80.5888671875
2023-03-12T05:39:52.120Z,80.4375
2023-03-12T05:40:52.133Z,80.4560546875
2023-03-12T05:41:52.130Z,80.5986328125
2023-03-12T05:42:52.107Z,80.5888671875
2023-03-12T05:43:52.533Z,80.5205078125
2023-03-12T05:44:54.481Z,80.4052734375
2023-03-12T05:45:52.338Z,80.4892578125
2023-03-12T05:46:52.185Z,80.384765625
2023-03-12T05:47:52.117Z,80.400390625
2023-03-12T05:48:52.532Z,80.162109375
2023-03-12T05:49:52.157Z,79.9140625
2023-03-12T05:50:52.121Z,79.9775390625
2023-03-12T05:51:52.114Z,79.7734375
2023-03-12T05:52:52.529Z,79.6708984375
2023-03-12T05:53:52.506Z,79.80078125
2023-03-12T05:54:52.110Z,79.7958984375
2023-03-12T05:55:54.438Z,79.9462890625
2023-03-12T05:56:52.253Z,79.6796875
2023-03-12T05:57:52.153Z,79.4658203125
2023-03-12T05:58:52.531Z,79.2978515625
2023-03-12T05:59:52.243Z,79.12890625
2023-03-12T06:00:52.092Z,78.91015625
2023-03-12T06:01:52.182Z,78.8935546875
2023-03-12T06:02:52.122Z,78.939453125
2023-03-12T06:03:52.524Z,78.8515625
2023-03-12T06:04:52.124Z,78.814453125
2023-03-12T06:05:52.097Z,78.9716796875
2023-03-12T06:06:54.493Z,79.0859375
2023-03-12T06:07:52.525Z,79.1142578125
2023-03-12T06:08:52.533Z,78.7080078125
2023-03-12T06:09:52.128Z,78.806640625
2023-03-12T06:10:52.125Z,78.8291015625
2023-03-12T06:11:52.106Z,79.333984375
2023-03-12T06:12:52.119Z,79.9306640625
2023-03-12T06:13:52.526Z,80.1669921875
2023-03-12T06:14:52.139Z,80.1015625
2023-03-12T06:15:52.130Z,79.8681640625
2023-03-12T06:16:52.227Z,79.5107421875
2023-03-12T06:17:54.535Z,79.3115234375
2023-03-12T06:18:52.518Z,79.1064453125
2023-03-12T06:19:52.127Z,78.951171875
2023-03-12T06:20:52.204Z,78.64453125
2023-03-12T06:21:52.143Z,78.4052734375
2023-03-12T06:22:52.524Z,78.33984375
2023-03-12T06:23:52.537Z,78.283203125
2023-03-12T06:24:52.127Z,78.58203125
2023-03-12T06:25:52.250Z,78.228515625
2023-03-12T06:26:52.133Z,78.287109375
2023-03-12T06:27:52.226Z,78.703125
2023-03-12T06:28:55.742Z,78.4755859375
2023-03-12T06:29:52.120Z,78.0078125
2023-03-12T06:30:52.119Z,78.314453125
2023-03-12T06:31:52.377Z,77.990234375
2023-03-12T06:32:52.242Z,77.8193359375
2023-03-12T06:33:52.527Z,77.5849609375
2023-03-12T06:34:52.124Z,77.1611328125
2023-03-12T06:35:52.155Z,76.802734375
2023-03-12T06:36:52.114Z,76.666015625
2023-03-12T06:37:52.550Z,76.501953125
2023-03-12T06:38:53.027Z,76.2265625
2023-03-12T06:39:54.472Z,76.0732421875
2023-03-12T06:40:52.129Z,75.9521484375
2023-03-12T06:41:52.118Z,76.115234375
2023-03-12T06:42:52.191Z,76.0712890625
2023-03-12T06:43:52.720Z,76.212890625
2023-03-12T06:44:52.106Z,76.2021484375
2023-03-12T06:45:52.123Z,76.6767578125
2023-03-12T06:46:52.121Z,76.4638671875
2023-03-12T06:47:52.115Z,76.177734375
2023-03-12T06:48:52.151Z,75.9658203125
2023-03-12T06:49:52.116Z,75.689453125
2023-03-12T06:50:54.511Z,75.6484375
2023-03-12T06:51:52.121Z,75.4091796875
2023-03-12T06:52:52.534Z,75.068359375
2023-03-12T06:53:52.524Z,74.6533203125
2023-03-12T06:54:52.104Z,74.435546875
2023-03-12T06:55:52.096Z,74.09765625
2023-03-12T06:56:52.084Z,73.8974609375
2023-03-12T06:57:52.255Z,73.654296875
2023-03-12T06:58:52.521Z,73.2783203125
2023-03-12T06:59:52.173Z,73.0673828125
2023-03-12T07:00:52.120Z,73.087890625
2023-03-12T07:01:54.504Z,72.677734375
2023-03-12T07:02:52.104Z,72.6181640625
2023-03-12T07:03:52.544Z,72.646484375
2023-03-12T07:04:52.129Z,72.5888671875
2023-03-12T07:05:52.134Z,72.51171875
2023-03-12T07:06:52.253Z,72.521484375
2023-03-12T07:07:52.523Z,72.5869140625
2023-03-12T07:08:52.538Z,72.5498046875
2023-03-12T07:09:52.101Z,72.05078125
2023-03-12T07:10:52.125Z,71.09375
2023-03-12T07:11:52.120Z,70.64453125
2023-03-12T07:12:54.497Z,70.794921875
2023-03-12T07:13:52.536Z,71.052734375
2023-03-12T07:14:52.119Z,71.07421875
2023-03-12T07:15:52.203Z,70.4560546875
2023-03-12T07:16:52.256Z,70.462890625
2023-03-12T07:17:52.131Z,70.6220703125
2023-03-12T07:18:52.203Z,70.697265625
2023-03-12T07:19:52.135Z,70.8125
2023-03-12T07:20:52.119Z,70.486328125
2023-03-12T07:21:52.152Z,71.025390625
2023-03-12T07:22:52.519Z,71.0966796875
2023-03-12T07:23:54.905Z,71.1240234375
2023-03-12T07:24:52.250Z,71.095703125
2023-03-12T07:25:52.112Z,70.5009765625
2023-03-12T07:26:52.125Z,70.330078125
2023-03-12T07:27:52.134Z,70.392578125
2023-03-12T07:28:52.532Z,70.4873046875
2023-03-12T07:29:52.126Z,70.6123046875
2023-03-12T07:30:52.116Z,69.9990234375
2023-03-12T07:31:52.629Z,69.86328125
2023-03-12T07:32:52.168Z,69.1591796875
2023-03-12T07:33:52.613Z,68.98828125
2023-03-12T07:34:54.486Z,69.0361328125
2023-03-12T07:35:52.301Z,69.4716796875
2023-03-12T07:36:52.302Z,69.5927734375
2023-03-12T07:37:52.557Z,69.451171875
2023-03-12T07:38:52.537Z,69.3212890625
2023-03-12T07:39:52.442Z,68.7880859375
2023-03-12T07:40:52.225Z,69.478515625
2023-03-12T07:41:52.153Z,70.0078125
2023-03-12T07:42:52.181Z,70.38671875
2023-03-12T07:43:52.595Z,70.8671875
2023-03-12T07:44:52.204Z,71.314453125
2023-03-12T07:45:54.468Z,71.0576171875
2023-03-12T07:46:52.204Z,70.7763671875
2023-03-12T07:47:52.164Z,70.5234375
2023-03-12T07:48:52.238Z,71.1435546875
2023-03-12T07:49:52.230Z,70.529296875
2023-03-12T07:50:52.304Z,71.53515625
2023-03-12T07:51:52.548Z,72.30078125
2023-03-12T07:52:52.553Z,73.28515625
2023-03-12T07:53:52.524Z,73.3291015625
2023-03-12T07:54:52.705Z,74.318359375
2023-03-12T07:55:52.469Z,74.77734375
2023-03-12T07:56:54.002Z,75.5849609375
2023-03-12T07:57:52.260Z,75.66796875
2023-03-12T07:58:52.780Z,76.4853515625
2023-03-12T07:59:52.487Z,76.5498046875
2023-03-12T08:00:52.146Z,76.263671875
2023-03-12T08:01:52.239Z,76.931640625
2023-03-12T08:02:52.505Z,77.3935546875
2023-03-12T08:03:52.575Z,77.6494140625
2023-03-12T08:04:52.162Z,78.181640625
2023-03-12T08:05:52.207Z,77.69140625
2023-03-12T08:06:52.235Z,78.373046875
2023-03-12T08:07:56.938Z,78.611328125
2023-03-12T08:08:52.562Z,78.53515625
2023-03-12T08:09:52.131Z,78.775390625
2023-03-12T08:10:52.129Z,79.0927734375
2023-03-12T08:11:52.132Z,79.6123046875
2023-03-12T08:12:52.173Z,79.4736328125
2023-03-12T08:13:52.534Z,79.9541015625
2023-03-12T08:14:52.253Z,80.4169921875
2023-03-12T08:15:52.826Z,80.5703125
2023-03-12T08:16:52.319Z,80.984375
2023-03-12T08:17:52.309Z,80.919921875
2023-03-12T08:18:54.918Z,81.244140625
2023-03-12T08:19:52.124Z,81.3876953125
2023-03-12T08:20:52.095Z,82.0234375
2023-03-12T08:21:52.128Z,82.35546875
2023-03-12T08:22:52.506Z,82.322265625
2023-03-12T08:23:52.526Z,82.796875
2023-03-12T08:24:52.128Z,83.4775390625
2023-03-12T08:25:52.151Z,83.8994140625
2023-03-12T08:26:52.131Z,83.9814453125
2023-03-12T08:27:52.117Z,83.9208984375
2023-03-12T08:28:52.570Z,85.2216796875
2023-03-12T08:29:54.482Z,85.759765625
2023-03-12T08:30:52.110Z,85.2109375
2023-03-12T08:32:04.086Z,84.853515625
2023-03-12T08:32:52.197Z,84.3466796875
2023-03-12T08:33:52.543Z,84.1923828125
2023-03-12T08:34:52.261Z,83.4873046875
2023-03-12T08:35:52.179Z,84.7421875
2023-03-12T08:36:52.202Z,87.8818359375
2023-03-12T08:37:52.551Z,89.0107421875
2023-03-12T08:38:52.532Z,91.0712890625
2023-03-12T08:39:52.119Z,93.0712890625
2023-03-12T08:40:54.498Z,93.5546875
2023-03-12T08:41:52.123Z,93.94140625
2023-03-12T08:42:52.093Z,93.126953125
2023-03-12T08:43:52.626Z,92.154296875
2023-03-12T08:44:52.110Z,92.32421875
2023-03-12T08:45:52.193Z,92.8759765625
2023-03-12T08:46:52.138Z,93.142578125
2023-03-12T08:47:52.251Z,93.5068359375
2023-03-12T08:48:52.570Z,94.373046875
2023-03-12T08:49:52.091Z,95.1103515625
2023-03-12T08:50:52.118Z,95.3505859375
2023-03-12T08:51:54.495Z,96.4208984375
2023-03-12T08:52:52.561Z,97.4560546875
2023-03-12T08:53:52.530Z,98.15234375
2023-03-12T08:54:52.114Z,98.1748046875
2023-03-12T08:55:52.158Z,98.7021484375
2023-03-12T08:56:52.288Z,99.3828125
2023-03-12T08:57:52.108Z,99.6748046875
2023-03-12T08:58:52.556Z,100
2023-03-12T08:59:52.079Z,100
2023-03-12T09:00:52.132Z,99.73828125
2023-03-12T09:01:52.130Z,99.5859375
2023-03-12T09:02:54.551Z,99.892578125
2023-03-12T09:03:52.548Z,100
2023-03-12T09:04:52.143Z,100
2023-03-12T09:05:52.181Z,100
2023-03-12T09:06:52.297Z,100
2023-03-12T09:07:52.755Z,100
2023-03-12T09:08:52.721Z,100
2023-03-12T09:09:52.542Z,100
2023-03-12T09:10:52.161Z,100
2023-03-12T09:11:52.333Z,100
2023-03-12T09:12:52.129Z,100
2023-03-12T09:14:28.351Z,100
2023-03-12T09:15:03.553Z,100
2023-03-12T09:15:52.201Z,100
2023-03-12T09:16:52.221Z,100
2023-03-12T09:17:52.129Z,100
2023-03-12T09:18:52.542Z,100
2023-03-12T09:19:52.115Z,100
2023-03-12T09:20:52.216Z,100
2023-03-12T09:21:52.104Z,100
2023-03-12T09:22:52.176Z,100
2023-03-12T09:23:52.677Z,100
2023-03-12T09:24:54.497Z,100
2023-03-12T09:25:52.108Z,100
2023-03-12T09:26:52.123Z,100
2023-03-12T09:27:52.105Z,99.4833984375
2023-03-12T09:28:52.112Z,99.2607421875
2023-03-12T09:30:00.733Z,99.5439453125
2023-03-12T09:30:52.162Z,98.69140625
2023-03-12T09:31:52.124Z,98.462890625
2023-03-12T09:32:52.175Z,98.8173828125
2023-03-12T09:33:52.094Z,97.8330078125
2023-03-12T09:34:52.222Z,97.7412109375
2023-03-12T09:35:54.642Z,97.2939453125
2023-03-12T09:36:52.165Z,96.80078125
2023-03-12T09:37:52.126Z,96.7861328125
2023-03-12T09:38:52.531Z,96.3271484375
2023-03-12T09:39:52.563Z,95.765625
2023-03-12T09:40:52.182Z,95.5751953125
2023-03-12T09:41:52.141Z,95.013671875
2023-03-12T09:42:52.266Z,95.83203125
2023-03-12T09:43:52.093Z,95.337890625
2023-03-12T09:44:52.524Z,94.3720703125
2023-03-12T09:45:52.141Z,94.0673828125
2023-03-12T09:46:54.526Z,94.0634765625
2023-03-12T09:47:52.114Z,94.546875
2023-03-12T09:48:52.120Z,94.107421875
2023-03-12T09:49:52.220Z,92.5927734375
2023-03-12T09:50:52.229Z,91.5888671875
2023-03-12T09:51:52.120Z,91.7021484375
2023-03-12T09:52:52.132Z,91.474609375
2023-03-12T09:53:52.157Z,92.47265625
2023-03-12T09:54:52.233Z,91.814453125
2023-03-12T09:55:52.214Z,91.3916015625
2023-03-12T09:56:52.113Z,90.63671875
2023-03-12T09:57:54.473Z,90.8828125
2023-03-12T09:58:52.127Z,91.7265625
2023-03-12T09:59:52.142Z,91.3759765625
2023-03-12T10:00:52.617Z,91.74609375
2023-03-12T10:01:52.138Z,91.4267578125
2023-03-12T10:02:52.202Z,90.8994140625
2023-03-12T10:03:52.123Z,91.0595703125
2023-03-12T10:04:59.522Z,90.0625
2023-03-12T10:05:52.652Z,89.466796875
2023-03-12T10:06:52.114Z,89.1396484375
2023-03-12T10:07:52.218Z,88.6376953125
2023-03-12T10:08:54.493Z,89.1611328125
2023-03-12T10:09:52.253Z,89.322265625
2023-03-12T10:10:52.610Z,89.83984375
2023-03-12T10:11:52.122Z,90.0400390625
2023-03-12T10:12:52.186Z,89.5126953125
2023-03-12T10:13:52.122Z,89.1064453125
2023-03-12T10:14:52.133Z,89.1005859375
2023-03-12T10:15:52.701Z,89.4033203125
2023-03-12T10:16:52.124Z,89.2880859375
2023-03-12T10:17:52.241Z,89.4326171875
2023-03-12T10:18:52.317Z,89.1435546875
2023-03-12T10:19:54.519Z,89.19140625
2023-03-12T10:20:52.620Z,88.8486328125
2023-03-12T10:21:52.151Z,88.125
2023-03-12T10:22:52.221Z,88.0419921875
2023-03-12T10:23:52.110Z,87.9140625
2023-03-12T10:24:52.573Z,87.6474609375
2023-03-12T10:25:52.255Z,88.0234375
2023-03-12T10:26:52.682Z,88.6083984375
2023-03-12T10:27:52.247Z,88.1416015625
2023-03-12T10:28:52.117Z,88.263671875
2023-03-12T10:29:52.119Z,88.4619140625
2023-03-12T10:30:54.477Z,87.875
2023-03-12T10:31:52.166Z,87.4296875
2023-03-12T10:32:52.178Z,86.9755859375
2023-03-12T10:33:52.107Z,88.296875
2023-03-12T10:34:52.233Z,90.2412109375
2023-03-12T10:35:52.127Z,90.2470703125
2023-03-12T10:36:52.133Z,90.876953125